Time;durP1;ratioP1;P1;durP2;ratioP2;P2;SDS_P1;SDS_P2;PMS_P1;PMS_P2;Temp;Humidity;BMP_temperature;BMP_pressure;BME280_temperature;BME280_humidity;BME280_pressure;Samples;Min_cycle;Max_cycle;Signal;HPM_P1;HPM_P2
2023/01/27 00:00:05;;;;;;;33.25;20.00;;;;;;;0.01;100.00;98730.31;5112308;28;20053;-66
2023/01/27 00:02:31;;;;;;;33.65;21.30;;;;;;;0.05;100.00;98734.13;5110770;28;20056;-66
2023/01/27 00:04:57;;;;;;;36.42;20.75;;;;;;;0.15;100.00;98726.94;5111982;28;20483;-66
2023/01/27 00:07:23;;;;;;;35.88;20.23;;;;;;;0.12;100.00;98736.56;5112078;28;20039;-67
2023/01/27 00:09:48;;;;;;;37.47;21.98;;;;;;;0.37;100.00;98752.09;5111620;28;20059;-67
2023/01/27 00:15:05;;;;;;;35.13;20.35;;;;;;;0.58;100.00;98745.63;5112404;28;20562;-66
2023/01/27 00:17:30;;;;;;;39.58;22.02;;;;;;;0.48;100.00;98735.50;5111919;28;20541;-67
2023/01/27 00:19:56;;;;;;;31.40;21.60;;;;;;;0.63;100.00;98743.66;5110450;28;20034;-66
2023/01/27 00:25:05;;;;;;;31.58;18.42;;;;;;;0.37;100.00;98740.28;5112193;28;20114;-66
2023/01/27 00:27:31;;;;;;;39.28;20.80;;;;;;;0.53;100.00;98746.50;5109510;28;20027;-67
2023/01/27 00:29:57;;;;;;;38.20;22.00;;;;;;;0.43;100.00;98747.41;5110469;28;20517;-67
2023/01/27 00:35:06;;;;;;;36.85;20.08;;;;;;;0.22;100.00;98736.50;5111550;28;20413;-66
2023/01/27 00:37:32;;;;;;;30.00;18.48;;;;;;;0.31;100.00;98728.47;5110463;28;20023;-67
2023/01/27 00:39:58;;;;;;;30.58;19.27;;;;;;;0.34;100.00;98727.91;5111476;28;20101;-66
2023/01/27 00:42:23;;;;;;;28.40;17.65;;;;;;;0.20;100.00;98726.91;5110465;28;20049;-67
2023/01/27 00:47:33;;;;;;;29.13;16.92;;;;;;;0.12;100.00;98720.06;5111637;28;20136;-67
2023/01/27 00:49:58;;;;;;;29.98;18.63;;;;;;;0.18;100.00;98723.63;5110291;28;20504;-67
2023/01/27 00:52:24;;;;;;;31.45;18.45;;;;;;;0.25;100.00;98707.63;5110181;28;20026;-67
2023/01/27 00:54:49;;;;;;;30.83;18.73;;;;;;;0.27;100.00;98710.91;5111514;28;20027;-67
2023/01/27 00:57:15;;;;;;;31.35;18.23;;;;;;;0.14;100.00;98706.84;5109350;28;20043;-67
2023/01/27 00:59:40;;;;;;;31.70;19.33;;;;;;;0.26;100.00;98693.56;5109907;28;20130;-67
2023/01/27 01:02:06;;;;;;;30.75;17.98;;;;;;;-0.07;100.00;98676.72;5111417;28;20032;-67
2023/01/27 01:04:31;;;;;;;28.15;18.10;;;;;;;-0.01;100.00;98672.84;5109930;28;20023;-67
2023/01/27 01:06:57;;;;;;;33.10;20.10;;;;;;;-0.09;100.00;98675.38;5111316;28;20114;-67
2023/01/27 01:09:22;;;;;;;35.08;21.80;;;;;;;0.10;100.00;98676.34;5110768;28;20028;-67
2023/01/27 01:11:48;;;;;;;36.10;21.80;;;;;;;0.21;100.00;98690.03;5108534;28;20024;-67
2023/01/27 01:14:13;;;;;;;41.00;22.85;;;;;;;0.31;100.00;98687.22;5111149;28;20065;-67
2023/01/27 01:16:39;;;;;;;34.22;20.77;;;;;;;0.23;100.00;98687.81;5109868;28;20114;-67
2023/01/27 01:19:04;;;;;;;37.63;22.65;;;;;;;0.16;100.00;98690.88;5111354;28;20031;-67
2023/01/27 01:21:30;;;;;;;28.25;18.20;;;;;;;0.07;100.00;98690.66;5109737;28;20024;-67
2023/01/27 01:23:55;;;;;;;31.98;19.45;;;;;;;0.05;100.00;98684.63;5111137;28;20035;-68
2023/01/27 01:26:21;;;;;;;31.73;18.27;;;;;;;0.13;100.00;98683.19;5110013;28;20038;-67
2023/01/27 01:28:46;;;;;;;29.30;17.63;;;;;;;0.06;100.00;98688.19;5111105;28;20140;-68
2023/01/27 01:31:15;;;;;;;32.72;18.52;;;;;;;-0.12;100.00;98681.41;5111122;28;20044;-68
2023/01/27 01:33:40;;;;;;;39.50;20.23;;;;;;;-0.14;100.00;98678.97;5109832;28;20015;-68
2023/01/27 01:36:08;;;;;;;31.02;17.98;;;;;;;-0.11;100.00;98669.34;5109947;28;20524;-68
2023/01/27 01:38:34;;;;;;;35.67;19.45;;;;;;;-0.22;100.00;98658.41;5109987;28;20084;-68
2023/01/27 01:40:59;;;;;;;44.88;21.95;;;;;;;-0.06;100.00;98667.38;5108679;28;20031;-68
2023/01/27 01:43:26;;;;;;;34.05;19.33;;;;;;;0.19;100.00;98662.81;5110868;28;20031;-68
2023/01/27 01:45:54;;;;;;;23.95;15.82;;;;;;;0.37;100.00;98672.31;5111106;28;20532;-68
2023/01/27 01:48:26;;;;;;;29.58;16.77;;;;;;;0.46;100.00;98669.78;5109727;28;20023;-68
2023/01/27 01:50:56;;;;;;;32.17;18.33;;;;;;;0.44;100.00;98671.16;5109773;28;20049;-69
2023/01/27 01:53:28;;;;;;;29.17;18.00;;;;;;;0.48;100.00;98672.22;5107142;28;20090;-68
2023/01/27 01:55:56;;;;;;;30.58;18.40;;;;;;;0.61;100.00;98660.56;5109945;28;20386;-68
2023/01/27 01:58:23;;;;;;;24.20;15.02;;;;;;;0.61;100.00;98666.06;5112161;28;20023;-68
2023/01/27 02:00:49;;;;;;;21.95;15.05;;;;;;;0.64;100.00;98672.91;5114440;28;20486;-68
2023/01/27 02:03:15;;;;;;;25.38;15.85;;;;;;;0.83;100.00;98667.50;5114448;28;20038;-68
2023/01/27 02:05:43;;;;;;;23.70;15.57;;;;;;;0.90;100.00;98678.19;5113261;28;20080;-68
2023/01/27 02:08:45;;;;;;;25.45;17.30;;;;;;;0.81;100.00;98678.00;5114257;28;20027;-69
2023/01/27 02:11:10;;;;;;;22.05;13.60;;;;;;;0.53;100.00;98663.94;5013674;28;20583;-69
2023/01/27 02:13:38;;;;;;;21.75;15.07;;;;;;;0.32;100.00;98657.78;5077514;28;20181;-68
2023/01/27 02:16:04;;;;;;;22.40;14.35;;;;;;;0.25;100.00;98627.84;5094069;28;20023;-68
2023/01/27 02:18:29;;;;;;;49.67;34.00;;;;;;;-0.05;100.00;98604.94;5106821;28;20432;-68
2023/01/27 02:20:56;;;;;;;19.10;13.30;;;;;;;0.05;100.00;98599.38;5114230;28;20035;-69
2023/01/27 02:23:47;;;;;;;20.23;12.65;;;;;;;-0.04;100.00;98601.09;5113948;28;20024;-68
2023/01/27 02:26:34;;;;;;;21.35;13.30;;;;;;;-0.21;100.00;98591.31;5113002;28;20022;-69
2023/01/27 02:29:06;;;;;;;24.30;15.05;;;;;;;-0.16;100.00;98574.78;5112321;28;20027;-68
2023/01/27 02:31:32;;;;;;;31.63;20.33;;;;;;;-0.22;100.00;98562.19;5114120;27;20137;-69
2023/01/27 02:34:09;;;;;;;35.13;21.02;;;;;;;-0.15;100.00;98581.09;5113822;28;20098;-69
2023/01/27 02:36:40;;;;;;;132.32;82.80;;;;;;;0.07;100.00;98591.66;5113286;28;20050;-69
2023/01/27 02:39:08;;;;;;;47.65;31.02;;;;;;;0.28;100.00;98619.00;5113908;28;20486;-69
2023/01/27 02:41:38;;;;;;;21.85;15.18;;;;;;;0.39;100.00;98626.06;5112412;28;20047;-69
2023/01/27 02:44:05;;;;;;;19.20;12.98;;;;;;;0.44;100.00;98633.47;5113425;28;20094;-68
2023/01/27 02:46:31;;;;;;;19.15;12.75;;;;;;;0.30;100.00;98615.97;5113776;28;20049;-68
2023/01/27 02:48:56;;;;;;;17.25;11.38;;;;;;;0.05;100.00;98588.38;5112323;28;20031;-68
2023/01/27 02:51:22;;;;;;;17.48;11.68;;;;;;;0.04;100.00;98569.41;5113648;28;20019;-68
2023/01/27 02:53:48;;;;;;;29.20;18.02;;;;;;;-0.09;100.00;98576.41;5113609;28;20066;-69
2023/01/27 02:56:13;;;;;;;30.75;18.30;;;;;;;-0.07;100.00;98574.19;5112124;28;20023;-69
2023/01/27 02:58:39;;;;;;;31.02;17.40;;;;;;;0.02;100.00;98553.22;5113461;28;20027;-69
2023/01/27 03:01:04;;;;;;;44.80;23.85;;;;;;;-0.08;100.00;98556.03;5113541;28;20024;-68
2023/01/27 03:03:30;;;;;;;33.88;19.13;;;;;;;0.08;100.00;98573.25;5111359;28;20379;-69
2023/01/27 03:05:55;;;;;;;26.17;15.10;;;;;;;0.36;100.00;98595.56;5113346;28;20019;-69
2023/01/27 03:08:21;;;;;;;27.40;15.43;;;;;;;0.38;100.00;98594.16;5112726;28;20042;-69
2023/01/27 03:10:51;;;;;;;19.15;13.25;;;;;;;0.43;100.00;98592.47;5112016;28;20038;-69
2023/01/27 03:13:20;;;;;;;;;;;;;;;0.36;100.00;98582.63;5113702;28;20083;-69
2023/01/27 03:18:29;;;;;;;22.60;14.65;;;;;;;0.36;100.00;98571.63;5113310;28;20062;-69
2023/01/27 03:21:01;;;;;;;20.00;12.88;;;;;;;0.46;100.00;98564.38;5113123;28;20020;-69
2023/01/27 03:23:26;;;;;;;22.08;14.13;;;;;;;0.49;100.00;98563.81;5111637;28;20028;-69
2023/01/27 03:25:52;;;;;;;22.58;13.65;;;;;;;0.47;100.00;98575.09;5111722;28;20034;-69
2023/01/27 03:28:17;;;;;;;20.40;13.13;;;;;;;0.56;100.00;98575.28;5112907;28;20020;-69
2023/01/27 03:30:43;;;;;;;27.67;17.17;;;;;;;0.66;100.00;98569.66;5112720;28;20039;-69
2023/01/27 03:33:08;;;;;;;25.08;13.85;;;;;;;0.90;100.00;98581.81;5111628;28;20031;-69
2023/01/27 03:35:47;;;;;;;19.73;12.05;;;;;;;0.92;100.00;98588.66;5112593;28;20054;-69
2023/01/27 03:46:31;;;;;;;19.60;11.00;;;;;;;1.13;100.00;98577.41;5096720;28;20130;-69
2023/01/27 03:48:58;;;;;;;14.90;9.88;;;;;;;1.22;100.00;98577.56;5112573;28;20478;-69
2023/01/27 03:51:25;;;;;;;15.38;9.73;;;;;;;1.31;100.00;98572.22;5112835;28;20022;-70
2023/01/27 03:53:52;;;;;;;14.93;9.75;;;;;;;1.32;100.00;98566.44;5111156;28;20023;-69
2023/01/27 03:56:20;;;;;;;18.15;12.23;;;;;;;1.32;100.00;98568.34;5111121;28;20023;-70
2023/01/27 03:58:47;;;;;;;20.30;11.85;;;;;;;1.42;100.00;98570.97;5111125;28;20027;-70
2023/01/27 04:01:19;;;;;;;19.42;12.57;;;;;;;1.48;100.00;98580.00;5112478;28;20029;-70
2023/01/27 04:09:30;;;;;;;20.40;13.50;;;;;;;1.60;100.00;98576.81;5111171;28;20578;-69
2023/01/27 04:11:58;;;;;;;19.92;12.95;;;;;;;1.58;100.00;98563.31;5110757;28;20016;-69
2023/01/27 04:14:25;;;;;;;46.53;33.92;;;;;;;1.50;100.00;98562.06;5110691;28;20047;-69
2023/01/27 04:16:53;;;;;;;23.30;17.33;;;;;;;1.41;100.00;98566.59;5111844;28;20019;-69
2023/01/27 04:19:19;;;;;;;16.60;13.32;;;;;;;1.50;100.00;98556.53;5110027;28;20032;-70
2023/01/27 04:21:45;;;;;;;21.85;14.88;;;;;;;1.63;100.00;98556.91;5110839;28;20466;-69
2023/01/27 04:24:15;;;;;;;21.48;15.05;;;;;;;1.61;100.00;98550.88;5106270;28;20060;-69
2023/01/27 04:26:42;;;;;;;;;;;;;;;1.60;100.00;98552.00;5112289;28;20394;-69
2023/01/27 04:29:08;;;;;;;30.77;20.88;;;;;;;1.43;100.00;98555.28;5111670;28;20331;-69
2023/01/27 04:31:34;;;;;;;31.10;21.90;;;;;;;1.45;100.00;98564.91;5111543;28;20028;-69
2023/01/27 04:33:59;;;;;;;36.97;22.67;;;;;;;1.04;100.00;98554.38;5111697;28;20107;-69
2023/01/27 04:36:25;;;;;;;54.30;36.13;;;;;;;0.73;100.00;98541.78;5111535;28;20054;-69
2023/01/27 04:38:50;;;;;;;42.63;27.77;;;;;;;0.39;100.00;98534.44;5109403;28;20410;-69
2023/01/27 04:41:16;;;;;;;25.40;16.08;;;;;;;0.27;100.00;98529.34;5111352;28;20098;-69
2023/01/27 04:43:41;;;;;;;26.48;18.27;;;;;;;0.19;100.00;98519.78;5111822;28;20481;-69
2023/01/27 04:46:07;;;;;;;23.38;16.15;;;;;;;0.12;100.00;98519.28;5110228;28;20065;-69
2023/01/27 04:48:33;;;;;;;22.42;13.75;;;;;;;0.05;100.00;98522.38;5111694;28;20436;-69
2023/01/27 04:50:58;;;;;;;24.85;16.25;;;;;;;0.08;100.00;98524.53;5110427;28;20034;-70
2023/01/27 04:53:24;;;;;;;26.92;17.45;;;;;;;-0.03;100.00;98531.25;5110731;28;20015;-70
2023/01/27 04:55:49;;;;;;;33.25;20.58;;;;;;;-0.04;100.00;98526.84;5109752;28;20032;-69
2023/01/27 04:58:19;;;;;;;35.10;24.65;;;;;;;0.12;100.00;98544.88;5111239;28;20547;-70
2023/01/27 05:00:44;;;;;;;40.27;23.20;;;;;;;0.36;100.00;98555.13;5110103;28;20031;-69
2023/01/27 05:03:10;;;;;;;29.88;19.23;;;;;;;0.54;100.00;98544.47;5108702;28;20046;-70
2023/01/27 05:05:37;;;;;;;31.65;19.30;;;;;;;0.70;100.00;98559.72;5109861;28;20452;-69
2023/01/27 05:08:04;;;;;;;22.73;14.90;;;;;;;0.88;100.00;98559.25;5110446;28;20077;-69
2023/01/27 05:10:29;;;;;;;24.35;13.77;;;;;;;0.89;100.00;98555.38;5111426;28;20409;-69
2023/01/27 05:12:54;;;;;;;23.17;14.77;;;;;;;0.73;100.00;98552.00;5111210;28;20016;-70
2023/01/27 05:15:20;;;;;;;29.33;19.00;;;;;;;0.64;100.00;98563.66;5109331;28;20028;-70
2023/01/27 05:17:45;;;;;;;27.20;19.17;;;;;;;0.53;100.00;98571.16;5111397;28;20016;-70
2023/01/27 05:20:11;;;;;;;25.17;17.83;;;;;;;0.76;100.00;98573.44;5110026;28;20020;-70
2023/01/27 05:22:37;;;;;;;28.13;17.98;;;;;;;0.83;100.00;98571.13;5108903;28;20024;-70
2023/01/27 05:25:03;;;;;;;25.42;18.48;;;;;;;0.94;100.00;98572.66;5111172;28;20392;-70
2023/01/27 05:27:29;;;;;;;40.60;23.10;;;;;;;1.03;100.00;98577.53;5110518;28;20081;-70
2023/01/27 05:29:54;;;;;;;46.15;25.33;;;;;;;0.89;100.00;98578.25;5110535;28;20051;-70
2023/01/27 05:32:20;;;;;;;49.58;25.20;;;;;;;1.04;100.00;98584.69;5114348;28;20543;-70
2023/01/27 05:34:45;;;;;;;56.35;25.13;;;;;;;1.02;100.00;98582.22;5115184;28;20094;-70
2023/01/27 05:37:11;;;;;;;64.15;30.45;;;;;;;1.01;100.00;98585.28;5113900;27;20061;-70
2023/01/27 05:39:36;;;;;;;59.35;27.00;;;;;;;0.82;100.00;98586.84;5115093;28;20027;-70
2023/01/27 05:42:02;;;;;;;52.35;28.10;;;;;;;0.78;100.00;98576.72;5113570;28;20035;-70
2023/01/27 05:44:27;;;;;;;45.38;27.05;;;;;;;0.66;100.00;98579.84;5114683;28;20034;-70
2023/01/27 05:46:52;;;;;;;43.08;25.02;;;;;;;0.58;100.00;98580.50;5114824;28;20626;-70
2023/01/27 05:49:18;;;;;;;38.25;23.65;;;;;;;0.62;100.00;98585.13;5111388;28;20395;-70
2023/01/27 05:51:43;;;;;;;48.88;30.42;;;;;;;0.73;100.00;98579.53;5113576;28;20019;-70
2023/01/27 05:54:09;;;;;;;63.13;33.45;;;;;;;0.77;100.00;98578.63;5114668;27;20057;-70
2023/01/27 05:56:35;;;;;;;70.60;37.45;;;;;;;0.73;100.00;98568.53;5114819;28;20031;-70
2023/01/27 05:59:00;;;;;;;57.40;31.65;;;;;;;0.49;100.00;98561.84;5114663;28;20019;-70
2023/01/27 06:01:31;;;;;;;39.97;22.90;;;;;;;0.39;100.00;98562.78;5112003;28;20019;-70
2023/01/27 06:03:57;;;;;;;47.10;28.65;;;;;;;0.47;100.00;98560.50;5113165;28;20438;-71
2023/01/27 06:06:24;;;;;;;55.33;32.58;;;;;;;0.73;100.00;98568.53;5113261;28;20028;-70
2023/01/27 06:08:51;;;;;;;61.58;37.33;;;;;;;0.84;100.00;98568.09;5114221;28;20447;-70
2023/01/27 06:11:21;;;;;;;63.88;37.15;;;;;;;1.03;100.00;98572.88;5111352;28;20063;-70
2023/01/27 06:13:47;;;;;;;63.58;36.30;;;;;;;1.06;100.00;98568.69;5102632;28;20171;-70
2023/01/27 06:16:16;;;;;;;63.33;28.80;;;;;;;1.10;100.00;98564.25;5100975;28;20032;-72
2023/01/27 06:18:41;;;;;;;42.42;23.10;;;;;;;1.03;100.00;98556.34;5110854;28;20031;-70
2023/01/27 06:21:11;;;;;;;41.85;24.98;;;;;;;1.11;100.00;98560.38;5109544;28;20035;-71
2023/01/27 06:23:37;;;;;;;39.75;22.25;;;;;;;1.11;100.00;98557.63;5108476;28;20537;-69
2023/01/27 06:26:22;;;;;;;60.03;31.38;;;;;;;1.06;100.00;98560.41;5107039;28;20095;-71
2023/01/27 06:28:48;;;;;;;80.30;38.08;;;;;;;1.13;100.00;98552.63;5105397;28;20044;-70
2023/01/27 06:31:19;;;;;;;77.78;37.05;;;;;;;1.32;100.00;98557.31;5106985;28;20044;-69
2023/01/27 06:33:45;;;;;;;88.05;41.15;;;;;;;1.42;100.00;98551.69;5103503;28;20863;-71
2023/01/27 06:36:12;;;;;;;100.28;53.70;;;;;;;1.58;100.00;98570.78;5106457;28;20032;-71
2023/01/27 06:38:38;;;;;;;102.22;56.42;;;;;;;1.22;100.00;98564.63;5105384;28;20028;-70
2023/01/27 06:41:04;;;;;;;139.73;68.47;;;;;;;1.28;100.00;98573.66;5107422;28;20394;-71
2023/01/27 06:43:30;;;;;;;104.22;50.72;;;;;;;1.25;100.00;98582.50;5105909;28;20173;-71
2023/01/27 06:45:56;;;;;;;76.25;42.78;;;;;;;1.15;100.00;98588.97;5109000;28;20067;-71
2023/01/27 06:48:23;;;;;;;106.50;63.10;;;;;;;1.09;100.00;98570.88;5107520;28;20030;-70
2023/01/27 06:50:49;;;;;;;78.75;45.08;;;;;;;1.21;100.00;98585.03;5108744;28;20067;-69
2023/01/27 06:53:14;;;;;;;88.53;44.80;;;;;;;1.38;100.00;98573.50;5108286;28;20038;-70
2023/01/27 06:55:43;;;;;;;83.90;45.38;;;;;;;1.49;100.00;98579.72;5109653;28;20108;-72
2023/01/27 06:58:11;;;;;;;81.78;37.75;;;;;;;1.64;100.00;98581.44;5109432;28;20058;-72
2023/01/27 07:00:38;;;;;;;68.32;39.95;;;;;;;1.61;100.00;98576.50;5101882;28;20055;-73
2023/01/27 07:03:03;;;;;;;57.83;36.65;;;;;;;1.57;100.00;98585.66;5109673;28;20100;-72
2023/01/27 07:05:29;;;;;;;58.55;31.23;;;;;;;1.42;100.00;98595.78;5108637;28;20028;-74
2023/01/27 07:07:55;;;;;;;69.57;39.13;;;;;;;1.38;100.00;98594.75;5100502;28;20035;-74
2023/01/27 07:10:21;;;;;;;99.57;55.60;;;;;;;1.57;100.00;98589.25;5108148;28;20063;-71
2023/01/27 07:12:46;;;;;;;73.82;38.70;;;;;;;1.49;100.00;98582.47;5106212;28;20031;-70
2023/01/27 07:15:13;;;;;;;76.25;33.42;;;;;;;1.53;100.00;98577.19;5103511;28;20034;-73
2023/01/27 07:17:38;;;;;;;50.03;24.70;;;;;;;1.47;100.00;98576.44;5107754;28;20028;-70
2023/01/27 07:20:06;;;;;;;71.43;34.65;;;;;;;1.61;100.00;98582.00;5101466;28;20034;-73
2023/01/27 07:22:31;;;;;;;88.95;39.38;;;;;;;1.78;100.00;98570.47;5107644;28;20023;-70
2023/01/27 07:24:57;;;;;;;99.43;43.72;;;;;;;1.87;100.00;98564.28;5107923;28;20035;-71
2023/01/27 07:27:23;;;;;;;76.78;42.72;;;;;;;1.84;100.00;98562.13;5100201;28;20169;-71
2023/01/27 07:29:49;;;;;;;82.75;46.50;;;;;;;1.92;100.00;98556.75;5106680;28;20047;-71
2023/01/27 07:32:15;;;;;;;163.68;85.47;;;;;;;1.92;100.00;98572.47;5103884;28;20026;-72
2023/01/27 07:34:40;;;;;;;58.03;33.92;;;;;;;1.82;100.00;98566.00;5105191;28;20078;-73
2023/01/27 07:37:08;;;;;;;72.30;43.35;;;;;;;1.75;100.00;98573.00;5106302;28;20060;-72
2023/01/27 07:39:36;;;;;;;41.92;25.58;;;;;;;1.75;100.00;98582.09;5106156;28;20536;-71
2023/01/27 07:42:02;;;;;;;54.72;33.33;;;;;;;1.91;100.00;98576.34;5105667;27;20400;-71
2023/01/27 07:44:28;;;;;;;53.78;32.33;;;;;;;1.98;100.00;98570.44;5106347;28;20160;-71
2023/01/27 07:46:53;;;;;;;72.78;48.13;;;;;;;2.07;100.00;98571.41;5107344;28;20516;-74
2023/01/27 07:49:19;;;;;;;78.97;47.20;;;;;;;1.99;100.00;98575.69;5106426;28;20107;-72
2023/01/27 07:51:45;;;;;;;90.65;56.85;;;;;;;2.14;100.00;98577.38;5108677;28;20023;-71
2023/01/27 07:54:11;;;;;;;80.20;52.90;;;;;;;2.22;100.00;98573.91;5108129;28;20027;-71
2023/01/27 07:56:36;;;;;;;49.00;33.00;;;;;;;2.30;100.00;98577.94;5102973;28;20023;-69
2023/01/27 07:59:03;;;;;;;68.40;37.00;;;;;;;2.29;100.00;98583.75;5102498;28;20028;-69
2023/01/27 08:01:29;;;;;;;70.85;39.97;;;;;;;2.30;100.00;98583.47;5109299;28;20592;-71
2023/01/27 08:03:54;;;;;;;76.88;44.15;;;;;;;2.27;100.00;98591.53;5105500;28;20490;-70
2023/01/27 08:06:20;;;;;;;80.55;45.15;;;;;;;2.31;100.00;98581.53;5109606;28;20030;-71
2023/01/27 08:08:45;;;;;;;79.20;44.05;;;;;;;2.34;100.00;98581.75;5109548;28;20424;-71
2023/01/27 08:11:13;;;;;;;71.47;41.58;;;;;;;2.21;100.00;98577.00;5098970;28;20020;-70
2023/01/27 08:13:38;;;;;;;64.38;38.97;;;;;;;1.97;100.00;98572.41;5109124;28;20137;-70
2023/01/27 08:16:07;;;;;;;83.78;48.67;;;;;;;1.81;100.00;98572.66;5107892;28;20230;-70
2023/01/27 08:18:33;;;;;;;122.75;77.45;;;;;;;1.76;100.00;98564.44;5094042;28;20028;-69
2023/01/27 08:21:01;;;;;;;93.63;56.38;;;;;;;1.53;100.00;98557.91;5096955;28;20413;-72
2023/01/27 08:23:27;;;;;;;136.98;73.18;;;;;;;1.47;100.00;98556.31;5108598;28;20019;-71
2023/01/27 08:25:57;;;;;;;138.05;78.70;;;;;;;1.44;100.00;98554.16;5109240;28;20528;-70
2023/01/27 08:28:23;;;;;;;;;;;;;;;1.46;100.00;98558.25;5109286;28;20020;-69
2023/01/27 08:30:51;;;;;;;119.28;72.38;;;;;;;1.47;100.00;98553.56;5108955;28;20015;-71
2023/01/27 08:33:18;;;;;;;64.82;36.60;;;;;;;1.51;100.00;98560.13;5109065;28;20587;-69
2023/01/27 08:35:45;;;;;;;59.50;34.28;;;;;;;1.46;100.00;98549.16;5113476;27;20447;-70
2023/01/27 08:38:13;;;;;;;56.83;32.15;;;;;;;1.44;100.00;98548.66;5129438;27;20075;-71
2023/01/27 08:40:40;;;;;;;59.13;31.35;;;;;;;1.57;100.00;98552.56;5112516;28;20092;-71
2023/01/27 08:43:06;;;;;;;86.28;43.55;;;;;;;1.58;100.00;98548.72;5104319;28;20016;-71
2023/01/27 08:45:32;;;;;;;76.10;39.28;;;;;;;1.65;100.00;98554.69;5107253;28;20557;-71
2023/01/27 08:47:58;;;;;;;76.38;38.30;;;;;;;1.66;100.00;98559.06;5108783;28;20482;-71
2023/01/27 08:50:24;;;;;;;82.00;46.33;;;;;;;1.72;100.00;98555.13;5108475;28;20031;-72
2023/01/27 08:52:49;;;;;;;81.55;42.78;;;;;;;1.81;100.00;98539.56;5107506;28;20076;-72
2023/01/27 08:55:15;;;;;;;69.43;38.67;;;;;;;1.54;100.00;98541.03;5108608;28;20040;-73
2023/01/27 08:57:40;;;;;;;74.72;40.25;;;;;;;1.69;100.00;98539.19;5109034;28;20027;-70
2023/01/27 09:00:07;;;;;;;60.00;34.15;;;;;;;1.79;100.00;98544.53;5106813;28;20034;-68
2023/01/27 09:02:34;;;;;;;50.97;29.60;;;;;;;1.93;100.00;98547.34;5107575;28;20028;-71
2023/01/27 09:04:59;;;;;;;40.60;25.02;;;;;;;1.98;100.00;98543.69;5108371;28;20413;-71
2023/01/27 09:07:25;;;;;;;42.80;24.38;;;;;;;1.93;100.00;98539.09;5112455;28;20051;-70
2023/01/27 09:09:50;;;;;;;50.65;28.30;;;;;;;2.11;100.00;98536.56;5111602;28;20024;-71
2023/01/27 09:12:16;;;;;;;53.30;29.83;;;;;;;2.22;100.00;98540.00;5110724;28;20073;-71
2023/01/27 09:14:42;;;;;;;55.13;35.00;;;;;;;2.18;100.00;98539.78;5110892;28;20099;-71
2023/01/27 09:17:07;;;;;;;75.65;42.83;;;;;;;2.32;100.00;98533.47;5112880;28;20040;-70
2023/01/27 09:19:33;;;;;;;83.45;48.97;;;;;;;2.44;100.00;98521.97;5111783;28;20027;-71
2023/01/27 09:21:58;;;;;;;138.38;73.60;;;;;;;2.51;100.00;98517.69;5111530;28;20032;-71
2023/01/27 09:24:24;;;;;;;114.18;60.42;;;;;;;2.68;100.00;98513.50;5112113;28;20097;-71
2023/01/27 09:26:49;;;;;;;90.45;51.15;;;;;;;2.76;100.00;98515.53;5112491;28;20063;-72
2023/01/27 09:29:15;;;;;;;83.55;46.50;;;;;;;2.61;100.00;98524.94;5112165;28;20027;-71
2023/01/27 09:31:40;;;;;;;116.63;63.85;;;;;;;2.50;100.00;98510.53;5112312;27;20046;-72
2023/01/27 09:34:06;;;;;;;149.40;81.15;;;;;;;2.36;100.00;98502.22;5112618;28;20052;-71
2023/01/27 09:36:38;;;;;;;130.88;71.03;;;;;;;2.32;100.00;98495.66;5112460;28;20024;-70
2023/01/27 09:39:07;;;;;;;123.05;63.28;;;;;;;2.50;100.00;98498.66;5110787;28;20464;-71
2023/01/27 09:41:44;;;;;;;166.70;85.93;;;;;;;2.50;100.00;98496.72;5112624;28;20105;-74
2023/01/27 09:44:37;;;;;;;113.32;61.72;;;;;;;2.52;100.00;98493.63;5112268;28;20019;-71
2023/01/27 09:47:24;;;;;;;91.97;50.78;;;;;;;2.45;100.00;98487.72;5105014;28;20398;-71
2023/01/27 09:50:09;;;;;;;72.57;44.22;;;;;;;2.34;100.00;98496.19;5110292;28;20092;-73
2023/01/27 09:53:04;;;;;;;77.43;45.28;;;;;;;2.29;100.00;98496.25;5111733;28;20497;-72
2023/01/27 09:55:55;;;;;;;82.60;45.10;;;;;;;2.29;100.00;98490.72;5074023;28;20130;-73
2023/01/27 09:58:51;;;;;;;75.95;42.20;;;;;;;2.27;100.00;98495.75;5087906;28;20040;-72
2023/01/27 10:01:31;;;;;;;72.15;42.78;;;;;;;2.18;100.00;98494.84;5112487;28;20520;-71
2023/01/27 10:04:18;;;;;;;139.55;77.05;;;;;;;2.17;100.00;98493.16;5110074;28;20459;-71
2023/01/27 10:06:55;;;;;;;81.43;48.90;;;;;;;2.19;100.00;98486.22;5110565;28;20039;-71
2023/01/27 10:09:48;;;;;;;71.63;43.22;;;;;;;2.27;100.00;98483.91;5112011;28;20501;-73
2023/01/27 10:12:54;;;;;;;68.57;38.88;;;;;;;2.40;100.00;98491.38;5109638;28;20035;-72
2023/01/27 10:15:31;;;;;;;75.45;45.65;;;;;;;2.50;100.00;98490.38;5048459;28;20037;-70
2023/01/27 10:18:02;;;;;;;107.32;71.18;;;;;;;2.33;100.00;98477.97;5029284;28;20029;-72
2023/01/27 10:20:37;;;;;;;67.28;41.10;;;;;;;2.34;100.00;98478.78;5076832;28;20406;-74
2023/01/27 10:23:28;;;;;;;73.90;37.13;;;;;;;2.40;100.00;98474.81;5108445;28;20114;-73
2023/01/27 10:26:07;;;;;;;60.72;36.25;;;;;;;2.35;100.00;98475.72;5101181;28;20096;-75
2023/01/27 10:28:33;;;;;;;52.22;33.70;;;;;;;2.51;100.00;98464.38;5110554;28;20055;-74
2023/01/27 10:31:06;;;;;;;52.90;34.15;;;;;;;2.45;100.00;98460.91;5110920;27;20044;-73
2023/01/27 10:33:51;;;;;;;60.63;37.20;;;;;;;2.54;100.00;98461.03;5111199;28;20832;-73
2023/01/27 10:36:35;;;;;;;51.63;32.50;;;;;;;2.51;100.00;98451.41;5110526;28;20030;-74
2023/01/27 10:39:03;;;;;;;45.00;29.02;;;;;;;2.38;100.00;98442.00;5089962;28;20089;-73
2023/01/27 10:41:52;;;;;;;49.50;28.02;;;;;;;2.34;100.00;98449.25;5091014;28;20032;-76
2023/01/27 10:44:30;;;;;;;57.65;33.50;;;;;;;2.47;100.00;98447.63;5093641;28;20047;-74
2023/01/27 10:47:07;;;;;;;54.17;30.73;;;;;;;2.52;100.00;98438.41;5092227;28;20077;-73
2023/01/27 10:49:41;;;;;;;50.55;32.50;;;;;;;2.51;100.00;98443.13;5106669;28;20031;-71
2023/01/27 10:52:15;;;;;;;67.93;36.08;;;;;;;2.50;100.00;98429.63;5096114;28;20032;-74
2023/01/27 10:55:05;;;;;;;50.25;30.90;;;;;;;2.59;100.00;98426.97;5103790;28;20521;-73
2023/01/27 10:57:59;;;;;;;43.08;25.17;;;;;;;2.71;100.00;98418.97;5102694;28;20581;-75
2023/01/27 11:00:40;;;;;;;43.55;27.55;;;;;;;2.79;100.00;98422.97;5098244;28;20467;-73
2023/01/27 11:03:09;;;;;;;47.20;25.63;;;;;;;2.82;100.00;98416.84;5104941;28;20152;-74
2023/01/27 11:05:42;;;;;;;48.53;26.90;;;;;;;3.05;100.00;98411.38;5109158;27;20031;-75
2023/01/27 11:08:32;;;;;;;34.17;21.25;;;;;;;3.00;100.00;98409.53;5106511;28;20039;-74
2023/01/27 11:13:45;;;;;;;45.50;25.75;;;;;;;3.23;100.00;98395.75;5108921;28;20104;-74
2023/01/27 11:16:17;;;;;;;44.13;24.60;;;;;;;3.12;100.00;98405.41;5106134;28;20027;-74
2023/01/27 11:18:45;;;;;;;44.55;25.38;;;;;;;3.09;100.00;98395.78;5105948;28;20490;-73
2023/01/27 11:21:23;;;;;;;45.63;25.15;;;;;;;3.15;100.00;98390.97;5105477;28;20473;-74
2023/01/27 11:23:54;;;;;;;41.65;22.85;;;;;;;3.08;100.00;98383.09;5101926;28;20032;-74
2023/01/27 11:26:31;;;;;;;35.95;19.80;;;;;;;3.17;100.00;98394.22;5108249;28;20023;-74
2023/01/27 11:29:16;;;;;;;57.72;37.17;;;;;;;3.25;100.00;98396.25;5108192;28;20027;-74
2023/01/27 11:32:19;;;;;;;38.05;22.85;;;;;;;3.20;100.00;98399.94;5108580;28;20038;-75
2023/01/27 11:35:00;;;;;;;40.47;22.52;;;;;;;3.27;100.00;98404.25;5106854;28;20075;-74
2023/01/27 11:37:49;;;;;;;38.05;22.70;;;;;;;3.26;100.00;98399.81;5107111;28;20407;-73
2023/01/27 11:40:34;;;;;;;37.88;21.67;;;;;;;3.22;100.00;98405.97;5103354;28;20043;-72
2023/01/27 11:43:01;;;;;;;39.50;20.75;;;;;;;3.23;100.00;98402.09;5107626;28;20130;-71
2023/01/27 11:45:32;;;;;;;35.08;19.30;;;;;;;3.19;100.00;98406.59;5105622;28;20035;-71
2023/01/27 11:48:00;;;;;;;38.30;20.88;;;;;;;3.17;100.00;98391.47;5107447;28;20404;-73
2023/01/27 11:50:33;;;;;;;45.10;21.40;;;;;;;3.22;100.00;98399.66;5104076;28;20106;-72
2023/01/27 11:53:17;;;;;;;36.58;21.67;;;;;;;3.25;100.00;98400.94;5107696;28;20031;-72
2023/01/27 11:56:06;;;;;;;35.47;20.52;;;;;;;3.25;100.00;98403.72;5107508;28;20494;-73